sensor_id;sensor_type;location;lat;lon;timestamp;pressure;altitude;pressure_sealevel;temperature;humidity
53011;BME280;42803;55.762;38.084;2023-04-15T00:01:58;100735.59;;;-1.51;43.72
53011;BME280;42803;55.762;38.084;2023-04-15T00:04:28;100744.84;;;-1.46;43.94
53011;BME280;42803;55.762;38.084;2023-04-15T00:06:58;100746.28;;;-1.48;43.84
53011;BME280;42803;55.762;38.084;2023-04-15T00:09:27;100740.00;;;-1.50;43.88
53011;BME280;42803;55.762;38.084;2023-04-15T00:11:56;100741.91;;;-1.55;43.99
53011;BME280;42803;55.762;38.084;2023-04-15T00:14:26;100750.28;;;-1.56;44.06
53011;BME280;42803;55.762;38.084;2023-04-15T00:16:55;100752.16;;;-1.60;44.28
53011;BME280;42803;55.762;38.084;2023-04-15T00:19:25;100762.84;;;-1.57;44.29
53011;BME280;42803;55.762;38.084;2023-04-15T00:21:54;100753.13;;;-1.60;44.13
53011;BME280;42803;55.762;38.084;2023-04-15T00:24:23;100759.84;;;-1.60;44.24
53011;BME280;42803;55.762;38.084;2023-04-15T00:26:52;100765.16;;;-1.53;44.01
53011;BME280;42803;55.762;38.084;2023-04-15T00:29:21;100757.72;;;-1.57;44.17
53011;BME280;42803;55.762;38.084;2023-04-15T00:31:52;100764.38;;;-1.70;44.83
53011;BME280;42803;55.762;38.084;2023-04-15T00:34:21;100763.84;;;-1.62;44.67
53011;BME280;42803;55.762;38.084;2023-04-15T00:36:50;100766.88;;;-1.65;44.62
53011;BME280;42803;55.762;38.084;2023-04-15T00:39:19;100770.53;;;-1.57;44.61
53011;BME280;42803;55.762;38.084;2023-04-15T00:41:49;100779.34;;;-1.79;44.96
53011;BME280;42803;55.762;38.084;2023-04-15T00:44:18;100778.38;;;-1.80;44.82
53011;BME280;42803;55.762;38.084;2023-04-15T00:46:51;100783.50;;;-1.80;45.26
53011;BME280;42803;55.762;38.084;2023-04-15T00:49:20;100797.25;;;-1.85;45.34
53011;BME280;42803;55.762;38.084;2023-04-15T00:51:51;100787.75;;;-1.86;45.55
53011;BME280;42803;55.762;38.084;2023-04-15T00:54:20;100789.13;;;-1.88;45.34
53011;BME280;42803;55.762;38.084;2023-04-15T00:56:49;100790.78;;;-1.88;45.26
53011;BME280;42803;55.762;38.084;2023-04-15T00:59:19;100793.31;;;-1.83;45.25
53011;BME280;42803;55.762;38.084;2023-04-15T01:01:50;100805.41;;;-1.82;44.98
53011;BME280;42803;55.762;38.084;2023-04-15T01:04:20;100816.50;;;-1.76;44.81
53011;BME280;42803;55.762;38.084;2023-04-15T01:06:49;100811.03;;;-1.90;45.08
53011;BME280;42803;55.762;38.084;2023-04-15T01:09:18;100812.03;;;-2.06;45.82
53011;BME280;42803;55.762;38.084;2023-04-15T01:11:50;100809.94;;;-2.03;45.62
53011;BME280;42803;55.762;38.084;2023-04-15T01:14:19;100823.88;;;-2.01;45.24
53011;BME280;42803;55.762;38.084;2023-04-15T01:16:48;100823.22;;;-2.11;45.51
53011;BME280;42803;55.762;38.084;2023-04-15T01:19:20;100822.56;;;-2.22;45.77
53011;BME280;42803;55.762;38.084;2023-04-15T01:21:49;100823.06;;;-2.30;45.89
53011;BME280;42803;55.762;38.084;2023-04-15T01:24:18;100826.38;;;-2.36;46.10
53011;BME280;42803;55.762;38.084;2023-04-15T01:26:49;100828.22;;;-2.35;46.03
53011;BME280;42803;55.762;38.084;2023-04-15T01:29:19;100831.03;;;-2.39;46.17
53011;BME280;42803;55.762;38.084;2023-04-15T01:31:50;100828.00;;;-2.42;46.52
53011;BME280;42803;55.762;38.084;2023-04-15T01:34:38;100829.41;;;-2.39;46.05
53011;BME280;42803;55.762;38.084;2023-04-15T01:37:26;100841.97;;;-2.46;46.29
53011;BME280;42803;55.762;38.084;2023-04-15T01:39:55;100845.47;;;-2.51;46.35
53011;BME280;42803;55.762;38.084;2023-04-15T01:42:26;100845.03;;;-2.54;46.46
53011;BME280;42803;55.762;38.084;2023-04-15T01:44:56;100850.34;;;-2.53;46.83
53011;BME280;42803;55.762;38.084;2023-04-15T01:47:26;100844.31;;;-2.53;46.73
53011;BME280;42803;55.762;38.084;2023-04-15T01:49:57;100843.59;;;-2.52;46.83
53011;BME280;42803;55.762;38.084;2023-04-15T01:52:29;100848.03;;;-2.51;46.96
53011;BME280;42803;55.762;38.084;2023-04-15T01:55:00;100846.63;;;-2.49;46.88
53011;BME280;42803;55.762;38.084;2023-04-15T01:57:32;100847.56;;;-2.54;46.76
53011;BME280;42803;55.762;38.084;2023-04-15T02:00:04;100852.19;;;-2.46;47.07
53011;BME280;42803;55.762;38.084;2023-04-15T02:02:41;100859.63;;;-2.42;46.81
53011;BME280;42803;55.762;38.084;2023-04-15T02:05:11;100857.78;;;-2.43;46.65
53011;BME280;42803;55.762;38.084;2023-04-15T02:07:44;100858.25;;;-2.40;46.81
53011;BME280;42803;55.762;38.084;2023-04-15T02:10:15;100863.34;;;-2.46;46.56
53011;BME280;42803;55.762;38.084;2023-04-15T02:12:47;100867.53;;;-2.46;47.16
53011;BME280;42803;55.762;38.084;2023-04-15T02:15:17;100858.50;;;-2.55;47.17
53011;BME280;42803;55.762;38.084;2023-04-15T02:17:50;100869.88;;;-2.53;47.34
53011;BME280;42803;55.762;38.084;2023-04-15T02:20:23;100870.56;;;-2.43;47.06
53011;BME280;42803;55.762;38.084;2023-04-15T02:22:53;100880.06;;;-2.42;46.83
53011;BME280;42803;55.762;38.084;2023-04-15T02:25:24;100868.44;;;-2.34;46.79
53011;BME280;42803;55.762;38.084;2023-04-15T02:27:57;100876.22;;;-2.10;46.95
53011;BME280;42803;55.762;38.084;2023-04-15T02:30:28;100873.31;;;-1.84;46.47
53011;BME280;42803;55.762;38.084;2023-04-15T02:32:59;100880.78;;;-1.85;46.24
53011;BME280;42803;55.762;38.084;2023-04-15T02:35:29;100884.06;;;-1.92;46.40
53011;BME280;42803;55.762;38.084;2023-04-15T02:38:00;100888.91;;;-1.82;46.29
53011;BME280;42803;55.762;38.084;2023-04-15T02:40:31;100891.69;;;-1.81;46.25
53011;BME280;42803;55.762;38.084;2023-04-15T02:43:02;100898.66;;;-1.80;46.28
53011;BME280;42803;55.762;38.084;2023-04-15T02:45:35;100899.38;;;-1.81;45.69
53011;BME280;42803;55.762;38.084;2023-04-15T02:48:06;100910.53;;;-1.80;45.79
53011;BME280;42803;55.762;38.084;2023-04-15T02:50:37;100912.81;;;-1.70;45.44
53011;BME280;42803;55.762;38.084;2023-04-15T02:53:14;100909.53;;;-1.64;45.73
53011;BME280;42803;55.762;38.084;2023-04-15T02:55:45;100909.69;;;-1.57;45.45
53011;BME280;42803;55.762;38.084;2023-04-15T02:58:17;100923.94;;;-1.59;45.32
53011;BME280;42803;55.762;38.084;2023-04-15T03:00:47;100921.06;;;-1.49;45.70
53011;BME280;42803;55.762;38.084;2023-04-15T03:03:19;100923.41;;;-1.45;45.49
53011;BME280;42803;55.762;38.084;2023-04-15T03:05:50;100924.78;;;-1.47;45.85
53011;BME280;42803;55.762;38.084;2023-04-15T03:08:20;100933.13;;;-1.42;45.25
53011;BME280;42803;55.762;38.084;2023-04-15T03:10:51;100928.22;;;-1.35;45.19
53011;BME280;42803;55.762;38.084;2023-04-15T03:13:25;100933.13;;;-1.37;45.29
53011;BME280;42803;55.762;38.084;2023-04-15T03:15:57;100931.25;;;-1.38;45.30
53011;BME280;42803;55.762;38.084;2023-04-15T03:18:28;100944.44;;;-1.24;45.05
53011;BME280;42803;55.762;38.084;2023-04-15T03:21:02;100945.84;;;-1.26;44.92
53011;BME280;42803;55.762;38.084;2023-04-15T03:23:35;100945.78;;;-1.14;44.77
53011;BME280;42803;55.762;38.084;2023-04-15T03:26:06;100952.88;;;-1.01;44.66
53011;BME280;42803;55.762;38.084;2023-04-15T03:28:38;100950.13;;;-1.02;44.43
53011;BME280;42803;55.762;38.084;2023-04-15T03:31:08;100951.50;;;-1.04;44.54
53011;BME280;42803;55.762;38.084;2023-04-15T03:33:39;100945.19;;;-0.95;44.73
53011;BME280;42803;55.762;38.084;2023-04-15T03:36:09;100949.06;;;-0.86;44.66
53011;BME280;42803;55.762;38.084;2023-04-15T03:38:39;100951.34;;;-0.82;44.51
53011;BME280;42803;55.762;38.084;2023-04-15T03:41:10;100954.81;;;-0.76;44.47
53011;BME280;42803;55.762;38.084;2023-04-15T03:43:42;100958.03;;;-0.71;44.18
53011;BME280;42803;55.762;38.084;2023-04-15T03:46:12;100953.38;;;-0.74;43.54
53011;BME280;42803;55.762;38.084;2023-04-15T03:48:42;100961.31;;;-0.72;43.61
53011;BME280;42803;55.762;38.084;2023-04-15T03:51:13;100962.59;;;-0.57;43.71
53011;BME280;42803;55.762;38.084;2023-04-15T03:53:43;100956.19;;;-0.48;43.73
53011;BME280;42803;55.762;38.084;2023-04-15T03:56:13;100961.69;;;-0.39;43.28
53011;BME280;42803;55.762;38.084;2023-04-15T03:58:45;100960.09;;;-0.20;42.92
53011;BME280;42803;55.762;38.084;2023-04-15T04:01:16;100962.13;;;-0.12;42.85
53011;BME280;42803;55.762;38.084;2023-04-15T04:03:46;100977.13;;;0.03;42.57
53011;BME280;42803;55.762;38.084;2023-04-15T04:06:17;100970.13;;;0.02;42.05
53011;BME280;42803;55.762;38.084;2023-04-15T04:08:47;100970.94;;;0.14;41.99
53011;BME280;42803;55.762;38.084;2023-04-15T04:11:17;100985.41;;;0.13;41.09
53011;BME280;42803;55.762;38.084;2023-04-15T04:13:50;100974.94;;;0.12;41.27
53011;BME280;42803;55.762;38.084;2023-04-15T04:16:20;100985.00;;;0.29;41.09
53011;BME280;42803;55.762;38.084;2023-04-15T04:18:51;100978.16;;;0.35;40.44
53011;BME280;42803;55.762;38.084;2023-04-15T04:21:21;100978.38;;;0.55;40.64
53011;BME280;42803;55.762;38.084;2023-04-15T04:23:51;100986.44;;;0.63;40.54
53011;BME280;42803;55.762;38.084;2023-04-15T04:26:22;100978.13;;;0.71;40.13
53011;BME280;42803;55.762;38.084;2023-04-15T04:28:53;100986.03;;;0.91;40.32
53011;BME280;42803;55.762;38.084;2023-04-15T04:31:24;100980.84;;;1.10;39.80
53011;BME280;42803;55.762;38.084;2023-04-15T04:33:55;100982.88;;;1.00;39.50
53011;BME280;42803;55.762;38.084;2023-04-15T04:36:25;100977.94;;;1.01;39.18
53011;BME280;42803;55.762;38.084;2023-04-15T04:38:55;100984.81;;;1.26;38.68
53011;BME280;42803;55.762;38.084;2023-04-15T04:41:26;100981.41;;;1.20;38.74
53011;BME280;42803;55.762;38.084;2023-04-15T04:43:58;100980.59;;;1.27;38.18
53011;BME280;42803;55.762;38.084;2023-04-15T04:46:28;100983.94;;;1.51;38.28
53011;BME280;42803;55.762;38.084;2023-04-15T04:48:58;100977.47;;;1.73;37.79
53011;BME280;42803;55.762;38.084;2023-04-15T04:51:29;100973.63;;;1.51;37.37
53011;BME280;42803;55.762;38.084;2023-04-15T04:54:00;100978.16;;;1.59;37.81
53011;BME280;42803;55.762;38.084;2023-04-15T04:56:31;100984.19;;;1.91;37.90
53011;BME280;42803;55.762;38.084;2023-04-15T04:59:03;100981.88;;;2.12;37.27
53011;BME280;42803;55.762;38.084;2023-04-15T05:01:34;100989.81;;;2.14;37.04
53011;BME280;42803;55.762;38.084;2023-04-15T05:04:06;100994.66;;;2.05;37.48
53011;BME280;42803;55.762;38.084;2023-04-15T05:06:36;100989.00;;;1.95;36.68
53011;BME280;42803;55.762;38.084;2023-04-15T05:09:08;100985.31;;;1.80;36.50
53011;BME280;42803;55.762;38.084;2023-04-15T05:11:38;100985.38;;;2.00;36.02
53011;BME280;42803;55.762;38.084;2023-04-15T05:14:10;100981.56;;;2.29;36.36
53011;BME280;42803;55.762;38.084;2023-04-15T05:16:41;100987.72;;;2.37;36.23
53011;BME280;42803;55.762;38.084;2023-04-15T05:19:11;100992.16;;;2.38;35.90
53011;BME280;42803;55.762;38.084;2023-04-15T05:21:41;100986.47;;;2.40;36.25
53011;BME280;42803;55.762;38.084;2023-04-15T05:24:12;100987.78;;;2.44;35.63
53011;BME280;42803;55.762;38.084;2023-04-15T05:26:42;100992.38;;;2.27;35.92
53011;BME280;42803;55.762;38.084;2023-04-15T05:29:14;100988.13;;;2.27;35.47
53011;BME280;42803;55.762;38.084;2023-04-15T05:31:45;100991.28;;;2.57;35.46
53011;BME280;42803;55.762;38.084;2023-04-15T05:34:16;100989.88;;;2.79;34.97
53011;BME280;42803;55.762;38.084;2023-04-15T05:36:46;100991.31;;;2.77;35.51
53011;BME280;42803;55.762;38.084;2023-04-15T05:39:17;100994.06;;;3.11;35.18
53011;BME280;42803;55.762;38.084;2023-04-15T05:41:47;100994.22;;;2.93;35.43
53011;BME280;42803;55.762;38.084;2023-04-15T05:44:19;101000.41;;;3.21;35.54
53011;BME280;42803;55.762;38.084;2023-04-15T05:46:49;100987.97;;;3.11;35.09
53011;BME280;42803;55.762;38.084;2023-04-15T05:49:20;100995.03;;;3.59;34.71
53011;BME280;42803;55.762;38.084;2023-04-15T05:51:50;101001.13;;;3.59;35.05
53011;BME280;42803;55.762;38.084;2023-04-15T05:54:21;101006.69;;;3.42;34.84
53011;BME280;42803;55.762;38.084;2023-04-15T05:56:51;101000.13;;;3.52;33.85
53011;BME280;42803;55.762;38.084;2023-04-15T05:59:23;101000.38;;;3.60;33.64
53011;BME280;42803;55.762;38.084;2023-04-15T06:01:54;101003.63;;;4.06;33.71
53011;BME280;42803;55.762;38.084;2023-04-15T06:04:25;101006.78;;;4.45;33.63
53011;BME280;42803;55.762;38.084;2023-04-15T06:06:55;101009.31;;;4.04;33.23
53011;BME280;42803;55.762;38.084;2023-04-15T06:09:26;101012.31;;;4.07;33.97
53011;BME280;42803;55.762;38.084;2023-04-15T06:11:57;101002.09;;;4.28;33.54
53011;BME280;42803;55.762;38.084;2023-04-15T06:14:31;101006.56;;;4.36;33.78
53011;BME280;42803;55.762;38.084;2023-04-15T06:17:26;101003.03;;;4.29;33.02
53011;BME280;42803;55.762;38.084;2023-04-15T06:19:56;101009.59;;;4.12;33.32
53011;BME280;42803;55.762;38.084;2023-04-15T06:22:27;101007.88;;;4.06;33.30
53011;BME280;42803;55.762;38.084;2023-04-15T06:24:57;101019.44;;;3.95;33.25
53011;BME280;42803;55.762;38.084;2023-04-15T06:27:30;101015.06;;;4.01;33.80
53011;BME280;42803;55.762;38.084;2023-04-15T06:30:02;101013.63;;;4.10;33.44
53011;BME280;42803;55.762;38.084;2023-04-15T06:32:32;101013.41;;;4.36;33.21
53011;BME280;42803;55.762;38.084;2023-04-15T06:35:04;101008.16;;;4.63;32.68
53011;BME280;42803;55.762;38.084;2023-04-15T06:37:34;101011.63;;;4.56;32.99
53011;BME280;42803;55.762;38.084;2023-04-15T06:40:06;101017.50;;;4.48;33.13
53011;BME280;42803;55.762;38.084;2023-04-15T06:42:37;101022.81;;;4.43;32.49
53011;BME280;42803;55.762;38.084;2023-04-15T06:45:11;101021.25;;;4.64;32.40
53011;BME280;42803;55.762;38.084;2023-04-15T06:47:41;101018.19;;;4.81;32.39
53011;BME280;42803;55.762;38.084;2023-04-15T06:50:11;101013.59;;;4.93;32.02
53011;BME280;42803;55.762;38.084;2023-04-15T06:52:42;101032.44;;;4.92;32.03
53011;BME280;42803;55.762;38.084;2023-04-15T06:55:13;101021.75;;;5.03;31.57
53011;BME280;42803;55.762;38.084;2023-04-15T06:57:43;101023.22;;;5.01;31.98
53011;BME280;42803;55.762;38.084;2023-04-15T07:00:16;101030.53;;;4.70;31.22
53011;BME280;42803;55.762;38.084;2023-04-15T07:02:47;101029.94;;;4.58;31.55
53011;BME280;42803;55.762;38.084;2023-04-15T07:05:17;101030.91;;;4.80;32.01
53011;BME280;42803;55.762;38.084;2023-04-15T07:07:48;101028.34;;;4.87;31.94
53011;BME280;42803;55.762;38.084;2023-04-15T07:10:18;101028.22;;;5.07;31.41
53011;BME280;42803;55.762;38.084;2023-04-15T07:12:49;101020.50;;;5.21;31.10
53011;BME280;42803;55.762;38.084;2023-04-15T07:15:21;101026.25;;;5.40;30.79
53011;BME280;42803;55.762;38.084;2023-04-15T07:17:52;101024.22;;;5.23;30.73
53011;BME280;42803;55.762;38.084;2023-04-15T07:20:22;101024.50;;;4.98;30.29
53011;BME280;42803;55.762;38.084;2023-04-15T07:22:53;101029.34;;;5.09;30.56
53011;BME280;42803;55.762;38.084;2023-04-15T07:25:24;101027.53;;;5.36;30.82
53011;BME280;42803;55.762;38.084;2023-04-15T07:27:54;101021.25;;;5.42;29.94
53011;BME280;42803;55.762;38.084;2023-04-15T07:30:26;101036.81;;;5.77;30.31
53011;BME280;42803;55.762;38.084;2023-04-15T07:32:57;101032.53;;;5.56;30.11
53011;BME280;42803;55.762;38.084;2023-04-15T07:35:53;101027.16;;;5.19;29.75
53011;BME280;42803;55.762;38.084;2023-04-15T07:38:23;101019.94;;;5.24;29.72
53011;BME280;42803;55.762;38.084;2023-04-15T07:40:54;101019.22;;;5.60;30.67
53011;BME280;42803;55.762;38.084;2023-04-15T07:43:24;101026.03;;;6.10;30.31
53011;BME280;42803;55.762;38.084;2023-04-15T07:45:56;101019.88;;;6.38;29.71
53011;BME280;42803;55.762;38.084;2023-04-15T07:48:26;101017.53;;;6.63;29.30
53011;BME280;42803;55.762;38.084;2023-04-15T07:50:56;101012.50;;;6.71;29.77
53011;BME280;42803;55.762;38.084;2023-04-15T07:53:27;101018.66;;;6.65;29.22
53011;BME280;42803;55.762;38.084;2023-04-15T07:55:57;101019.00;;;6.16;29.39
53011;BME280;42803;55.762;38.084;2023-04-15T07:58:28;101005.09;;;6.23;30.31
53011;BME280;42803;55.762;38.084;2023-04-15T08:01:00;101009.78;;;6.55;29.56
53011;BME280;42803;55.762;38.084;2023-04-15T08:03:31;101011.56;;;6.33;28.89
53011;BME280;42803;55.762;38.084;2023-04-15T08:06:03;101008.13;;;5.69;28.86
53011;BME280;42803;55.762;38.084;2023-04-15T08:08:33;101016.41;;;5.87;29.67
53011;BME280;42803;55.762;38.084;2023-04-15T08:11:04;101014.78;;;5.81;29.11
53011;BME280;42803;55.762;38.084;2023-04-15T08:13:34;101021.03;;;6.19;29.03
53011;BME280;42803;55.762;38.084;2023-04-15T08:16:18;101026.94;;;6.18;28.89
53011;BME280;42803;55.762;38.084;2023-04-15T08:18:50;101013.44;;;6.20;28.81
53011;BME280;42803;55.762;38.084;2023-04-15T08:21:21;101016.88;;;6.49;28.76
53011;BME280;42803;55.762;38.084;2023-04-15T08:23:52;101011.94;;;6.74;29.24
53011;BME280;42803;55.762;38.084;2023-04-15T08:26:22;101013.28;;;7.00;29.43
53011;BME280;42803;55.762;38.084;2023-04-15T08:28:53;101009.25;;;6.95;29.01
53011;BME280;42803;55.762;38.084;2023-04-15T08:31:26;101005.31;;;6.99;28.94
53011;BME280;42803;55.762;38.084;2023-04-15T08:33:58;101004.63;;;6.86;28.88
53011;BME280;42803;55.762;38.084;2023-04-15T08:36:32;101007.47;;;6.80;28.83
53011;BME280;42803;55.762;38.084;2023-04-15T08:39:02;100996.66;;;6.91;28.54
53011;BME280;42803;55.762;38.084;2023-04-15T08:41:40;101003.19;;;6.36;28.35
53011;BME280;42803;55.762;38.084;2023-04-15T08:44:17;101002.63;;;6.46;29.02
53011;BME280;42803;55.762;38.084;2023-04-15T08:46:50;100999.69;;;6.35;29.00
53011;BME280;42803;55.762;38.084;2023-04-15T08:49:21;100997.91;;;6.13;28.90
53011;BME280;42803;55.762;38.084;2023-04-15T08:51:57;100999.59;;;6.64;29.62
53011;BME280;42803;55.762;38.084;2023-04-15T08:54:28;101010.66;;;6.70;28.88
53011;BME280;42803;55.762;38.084;2023-04-15T08:56:58;101005.00;;;6.44;28.94
53011;BME280;42803;55.762;38.084;2023-04-15T08:59:30;101016.47;;;6.53;28.79
53011;BME280;42803;55.762;38.084;2023-04-15T09:02:02;100995.81;;;6.25;28.56
53011;BME280;42803;55.762;38.084;2023-04-15T09:04:35;100995.41;;;6.36;28.23
53011;BME280;42803;55.762;38.084;2023-04-15T09:07:06;101004.72;;;6.27;28.57
53011;BME280;42803;55.762;38.084;2023-04-15T09:09:38;100996.34;;;6.37;29.10
53011;BME280;42803;55.762;38.084;2023-04-15T09:12:10;100993.31;;;6.48;28.95
53011;BME280;42803;55.762;38.084;2023-04-15T09:14:41;101004.34;;;6.24;28.67
53011;BME280;42803;55.762;38.084;2023-04-15T09:17:18;100991.41;;;6.17;28.66
53011;BME280;42803;55.762;38.084;2023-04-15T09:19:48;100979.72;;;6.72;29.02
53011;BME280;42803;55.762;38.084;2023-04-15T09:22:19;100982.56;;;6.89;28.45
53011;BME280;42803;55.762;38.084;2023-04-15T09:24:50;100985.19;;;6.82;28.75
53011;BME280;42803;55.762;38.084;2023-04-15T09:27:21;100972.22;;;6.82;28.35
53011;BME280;42803;55.762;38.084;2023-04-15T09:29:52;100976.53;;;6.74;28.43
53011;BME280;42803;55.762;38.084;2023-04-15T09:32:24;100980.47;;;6.94;29.02
53011;BME280;42803;55.762;38.084;2023-04-15T09:34:55;100982.34;;;6.95;28.24
53011;BME280;42803;55.762;38.084;2023-04-15T09:37:34;100985.25;;;6.68;28.00
53011;BME280;42803;55.762;38.084;2023-04-15T09:40:05;100974.50;;;7.25;28.65
53011;BME280;42803;55.762;38.084;2023-04-15T09:42:53;100981.75;;;7.27;27.23
53011;BME280;42803;55.762;38.084;2023-04-15T09:45:25;100976.22;;;6.94;27.22
53011;BME280;42803;55.762;38.084;2023-04-15T09:48:15;100985.84;;;7.02;26.58
53011;BME280;42803;55.762;38.084;2023-04-15T09:50:46;100976.56;;;6.97;27.03
53011;BME280;42803;55.762;38.084;2023-04-15T09:53:19;100975.50;;;6.95;26.72
53011;BME280;42803;55.762;38.084;2023-04-15T09:55:51;100979.56;;;6.93;26.50
53011;BME280;42803;55.762;38.084;2023-04-15T09:58:24;100972.50;;;6.99;26.35
53011;BME280;42803;55.762;38.084;2023-04-15T10:00:56;100969.00;;;7.22;26.78
53011;BME280;42803;55.762;38.084;2023-04-15T10:03:30;100972.69;;;7.47;26.65
53011;BME280;42803;55.762;38.084;2023-04-15T10:06:03;100981.97;;;7.68;27.02
53011;BME280;42803;55.762;38.084;2023-04-15T10:08:59;100968.13;;;7.60;26.61
53011;BME280;42803;55.762;38.084;2023-04-15T10:11:48;100979.56;;;7.85;26.58
53011;BME280;42803;55.762;38.084;2023-04-15T10:14:19;100970.50;;;7.81;26.94
53011;BME280;42803;55.762;38.084;2023-04-15T10:16:51;100966.88;;;7.72;26.85
53011;BME280;42803;55.762;38.084;2023-04-15T10:22:34;100959.97;;;8.12;26.64
53011;BME280;42803;55.762;38.084;2023-04-15T10:25:05;100953.34;;;8.22;25.85
53011;BME280;42803;55.762;38.084;2023-04-15T10:27:38;100957.06;;;8.40;26.31
53011;BME280;42803;55.762;38.084;2023-04-15T10:30:14;100954.88;;;8.36;25.67
53011;BME280;42803;55.762;38.084;2023-04-15T10:32:47;100964.19;;;8.50;25.79
53011;BME280;42803;55.762;38.084;2023-04-15T10:35:21;100956.88;;;8.54;26.23
53011;BME280;42803;55.762;38.084;2023-04-15T10:37:52;100958.88;;;8.57;26.14
53011;BME280;42803;55.762;38.084;2023-04-15T10:40:24;100957.44;;;9.08;26.57
53011;BME280;42803;55.762;38.084;2023-04-15T10:42:57;100960.03;;;9.41;26.25
53011;BME280;42803;55.762;38.084;2023-04-15T10:45:32;100948.03;;;9.35;25.46
53011;BME280;42803;55.762;38.084;2023-04-15T10:48:03;100958.03;;;9.06;25.56
53011;BME280;42803;55.762;38.084;2023-04-15T10:50:38;100958.34;;;9.09;25.56
53011;BME280;42803;55.762;38.084;2023-04-15T10:53:09;100958.97;;;9.15;26.13
53011;BME280;42803;55.762;38.084;2023-04-15T10:55:58;100946.25;;;9.42;25.55
53011;BME280;42803;55.762;38.084;2023-04-15T10:58:40;100949.25;;;9.30;25.88
53011;BME280;42803;55.762;38.084;2023-04-15T11:01:52;100953.25;;;9.01;25.34
53011;BME280;42803;55.762;38.084;2023-04-15T11:07:50;100946.84;;;9.31;25.29
53011;BME280;42803;55.762;38.084;2023-04-15T11:10:51;100941.19;;;9.35;25.18
53011;BME280;42803;55.762;38.084;2023-04-15T11:13:47;100939.16;;;9.33;25.29
53011;BME280;42803;55.762;38.084;2023-04-15T11:16:18;100941.78;;;9.66;25.56
53011;BME280;42803;55.762;38.084;2023-04-15T11:18:57;100946.03;;;9.65;25.07
53011;BME280;42803;55.762;38.084;2023-04-15T11:21:28;100932.84;;;9.64;25.51
53011;BME280;42803;55.762;38.084;2023-04-15T11:24:00;100946.34;;;9.60;25.31
53011;BME280;42803;55.762;38.084;2023-04-15T11:26:32;100949.03;;;9.44;25.39
53011;BME280;42803;55.762;38.084;2023-04-15T11:29:02;100946.66;;;9.63;25.50
53011;BME280;42803;55.762;38.084;2023-04-15T11:31:33;100944.25;;;9.73;25.86
53011;BME280;42803;55.762;38.084;2023-04-15T11:34:04;100945.06;;;9.89;25.58
53011;BME280;42803;55.762;38.084;2023-04-15T11:36:42;100928.66;;;9.99;24.86
53011;BME280;42803;55.762;38.084;2023-04-15T11:39:14;100933.16;;;10.26;24.64
53011;BME280;42803;55.762;38.084;2023-04-15T11:41:45;100935.59;;;10.16;24.46
53011;BME280;42803;55.762;38.084;2023-04-15T11:44:35;100930.41;;;10.33;24.16
53011;BME280;42803;55.762;38.084;2023-04-15T11:47:22;100936.66;;;10.00;24.46
53011;BME280;42803;55.762;38.084;2023-04-15T11:49:53;100932.28;;;9.84;24.96
53011;BME280;42803;55.762;38.084;2023-04-15T11:52:22;100917.28;;;9.98;25.13
53011;BME280;42803;55.762;38.084;2023-04-15T11:55:02;100909.31;;;9.97;25.03
53011;BME280;42803;55.762;38.084;2023-04-15T11:57:49;100917.69;;;10.28;24.88
53011;BME280;42803;55.762;38.084;2023-04-15T12:00:19;100911.84;;;10.47;24.67
53011;BME280;42803;55.762;38.084;2023-04-15T12:02:48;100918.13;;;10.41;25.16
53011;BME280;42803;55.762;38.084;2023-04-15T12:05:17;100904.88;;;10.22;25.20
53011;BME280;42803;55.762;38.084;2023-04-15T12:08:04;100921.13;;;9.93;24.79
53011;BME280;42803;55.762;38.084;2023-04-15T12:10:35;100916.19;;;9.79;25.54
53011;BME280;42803;55.762;38.084;2023-04-15T12:13:05;100908.69;;;9.91;25.19
53011;BME280;42803;55.762;38.084;2023-04-15T12:15:41;100911.75;;;9.95;25.20
53011;BME280;42803;55.762;38.084;2023-04-15T12:18:16;100901.31;;;9.78;25.20
53011;BME280;42803;55.762;38.084;2023-04-15T12:20:46;100907.75;;;9.73;25.51
53011;BME280;42803;55.762;38.084;2023-04-15T12:23:21;100902.03;;;9.68;25.03
53011;BME280;42803;55.762;38.084;2023-04-15T12:25:52;100890.88;;;9.78;25.77
53011;BME280;42803;55.762;38.084;2023-04-15T12:28:40;100899.03;;;9.81;25.85
53011;BME280;42803;55.762;38.084;2023-04-15T12:31:10;100908.63;;;9.65;25.82
53011;BME280;42803;55.762;38.084;2023-04-15T12:33:42;100899.47;;;9.86;26.26
53011;BME280;42803;55.762;38.084;2023-04-15T12:36:12;100894.59;;;9.97;25.66
53011;BME280;42803;55.762;38.084;2023-04-15T12:38:42;100891.22;;;10.24;25.60
53011;BME280;42803;55.762;38.084;2023-04-15T12:41:13;100890.59;;;10.10;25.42
53011;BME280;42803;55.762;38.084;2023-04-15T12:43:43;100897.47;;;9.83;25.33
53011;BME280;42803;55.762;38.084;2023-04-15T12:46:13;100898.56;;;9.94;25.44
53011;BME280;42803;55.762;38.084;2023-04-15T12:48:43;100890.88;;;9.95;25.63
53011;BME280;42803;55.762;38.084;2023-04-15T12:51:14;100891.22;;;9.98;25.44
53011;BME280;42803;55.762;38.084;2023-04-15T12:54:23;100884.00;;;10.13;25.46
53011;BME280;42803;55.762;38.084;2023-04-15T12:56:54;100893.06;;;10.17;25.49
53011;BME280;42803;55.762;38.084;2023-04-15T12:59:24;100888.13;;;10.02;25.69
53011;BME280;42803;55.762;38.084;2023-04-15T13:01:53;100874.19;;;10.02;25.08
53011;BME280;42803;55.762;38.084;2023-04-15T13:04:23;100880.44;;;9.78;25.58
53011;BME280;42803;55.762;38.084;2023-04-15T13:06:52;100871.66;;;9.69;25.67
53011;BME280;42803;55.762;38.084;2023-04-15T13:09:21;100880.38;;;9.61;25.71
53011;BME280;42803;55.762;38.084;2023-04-15T13:11:50;100883.31;;;9.55;25.51
53011;BME280;42803;55.762;38.084;2023-04-15T13:17:10;100882.28;;;9.70;25.97
53011;BME280;42803;55.762;38.084;2023-04-15T13:19:58;100878.13;;;9.72;26.40
53011;BME280;42803;55.762;38.084;2023-04-15T13:22:27;100881.03;;;9.75;26.00